CheckWX is a tool to help pilots better visualize weather data.  It is not intended as a substitute for an official pre-flight weather briefing.

20:27:42 UTC

KBMI TAF
Central Illinois Regional at Bloomington-Normal Airport
Bloomington/Normal, Illinois, USA
KBMI 251723Z 2518/2618 21015G24KT P6SM SCT030 FM260200 23005KT P6SM VCTS SCT050CB BKN250 FM260800 23005KT P6SM SCT040 BKN150

Jun-25@
18:00 UTC

Jun-25 @ 18:00 UTC

Jun-26@
02:00 UTC

Jun-26 @ 02:00 UTC

KBMI 251723Z 2518/2618 21015G24KT P6SM SCT030
Wind
  • 210° at 15 KTS
  • {Gusting to 24 KTS
Cloud Levels
  • Scattered at 3,000' AGL

Jun-26@
02:00 UTC

Jun-26 @ 02:00 UTC

Jun-26@
08:00 UTC

Jun-26 @ 08:00 UTC

FM260200 23005KT P6SM VCTS SCT050CB BKN250

From

From Standard forecast or significant change

Wind
  • 230° at 5 KTS
Conditions
Area Thunderstorm
Cloud Levels
  • Scattered at 5,000' AGL
  • Broken at 25,000' AGL

Jun-26@
08:00 UTC

Jun-26 @ 08:00 UTC

Jun-26@
18:00 UTC

Jun-26 @ 18:00 UTC

FM260800 23005KT P6SM SCT040 BKN150

From

From Standard forecast or significant change

Wind
  • 230° at 5 KTS
Cloud Levels
  • Scattered at 4,000' AGL
  • Broken at 15,000' AGL